GEOFB FWKI-FLKK
Flight info
| Callsign | GEOFB |
|---|---|
| Flight time | 0h 37m |
| Altitude | 40000 |
| Route | UTOLA1A UTOLA DCT IBNOP IBNOP1A |
| Aircraft | C750/M-SBDE3FGHRWXY/S |
Departure
| Time | 2026-05-08 11:20 |
|---|---|
| Airport | Kamuzu International Airport (FWKI) |
Arrival
| Time | 2026-05-08 11:58 |
|---|---|
| Airport | Kenneth Kaunda International Airport (FLKK) |
| Time | Latitude | Longitude | Altitude | Speed | Heading |
|---|---|---|---|---|---|
| 2026-05-08 11:14 | -13.78335 | 33.77822 | 4031 ft | 0 kts | 310° |
| 2026-05-08 11:17 | -13.78334 | 33.77821 | 4031 ft | 2 kts | 310° |
| 2026-05-08 11:18 | -13.78337 | 33.77777 | 4031 ft | 10 kts | 232° |
| 2026-05-08 11:18 | -13.78355 | 33.77679 | 4031 ft | 20 kts | 302° |
| 2026-05-08 11:18 | -13.78237 | 33.77534 | 4031 ft | 32 kts | 308° |
| 2026-05-08 11:18 | -13.78090 | 33.77353 | 4031 ft | 34 kts | 311° |
| 2026-05-08 11:19 | -13.77933 | 33.77162 | 4032 ft | 34 kts | 310° |
| 2026-05-08 11:19 | -13.77815 | 33.76979 | 4032 ft | 29 kts | 264° |
| 2026-05-08 11:19 | -13.77950 | 33.76900 | 4032 ft | 25 kts | 159° |
| 2026-05-08 11:19 | -13.78089 | 33.77066 | 4031 ft | 62 kts | 130° |
| 2026-05-08 11:20 | -13.78592 | 33.77687 | 4033 ft | 151 kts | 129° |
| 2026-05-08 11:20 | -13.79330 | 33.78568 | 4408 ft | 173 kts | 131° |
| 2026-05-08 11:20 | -13.80235 | 33.79336 | 5379 ft | 165 kts | 148° |
| 2026-05-08 11:20 | -13.81310 | 33.79557 | 6349 ft | 167 kts | 190° |
| 2026-05-08 11:21 | -13.82367 | 33.78742 | 6120 ft | 235 kts | 239° |
| 2026-05-08 11:21 | -13.82635 | 33.76931 | 6054 ft | 281 kts | 282° |
| 2026-05-08 11:21 | -13.81659 | 33.75304 | 7370 ft | 258 kts | 326° |
| 2026-05-08 11:22 | -13.80030 | 33.75015 | 8805 ft | 243 kts | 13° |
| 2026-05-08 11:22 | -13.78286 | 33.75300 | 9305 ft | 272 kts | 357° |
| 2026-05-08 11:22 | -13.76486 | 33.74491 | 9835 ft | 297 kts | 319° |
| 2026-05-08 11:22 | -13.75254 | 33.72801 | 10853 ft | 301 kts | 299° |
| 2026-05-08 11:23 | -13.74716 | 33.70670 | 11162 ft | 327 kts | 276° |
| 2026-05-08 11:23 | -13.74565 | 33.68249 | 11449 ft | 352 kts | 273° |
| 2026-05-08 11:23 | -13.74435 | 33.65674 | 11927 ft | 365 kts | 274° |
| 2026-05-08 11:23 | -13.74238 | 33.63066 | 12828 ft | 366 kts | 275° |
| 2026-05-08 11:24 | -13.74022 | 33.60446 | 13602 ft | 370 kts | 275° |
| 2026-05-08 11:24 | -13.73834 | 33.57794 | 14361 ft | 373 kts | 274° |
| 2026-05-08 11:24 | -13.73657 | 33.55118 | 15069 ft | 377 kts | 274° |
| 2026-05-08 11:24 | -13.73464 | 33.52445 | 15769 ft | 381 kts | 275° |
| 2026-05-08 11:25 | -13.73258 | 33.49717 | 16499 ft | 384 kts | 275° |
| 2026-05-08 11:25 | -13.73058 | 33.46968 | 17230 ft | 387 kts | 275° |
| 2026-05-08 11:25 | -13.72862 | 33.44193 | 17959 ft | 391 kts | 274° |
| 2026-05-08 11:25 | -13.72660 | 33.41391 | 18697 ft | 395 kts | 275° |
| 2026-05-08 11:26 | -13.72451 | 33.38559 | 19432 ft | 399 kts | 275° |
| 2026-05-08 11:26 | -13.72242 | 33.35701 | 20142 ft | 403 kts | 275° |
| 2026-05-08 11:26 | -13.72032 | 33.32812 | 20872 ft | 408 kts | 275° |
| 2026-05-08 11:26 | -13.71822 | 33.29928 | 21577 ft | 412 kts | 275° |
| 2026-05-08 11:27 | -13.71606 | 33.26977 | 22271 ft | 416 kts | 275° |
| 2026-05-08 11:27 | -13.71388 | 33.24001 | 22970 ft | 419 kts | 275° |
| 2026-05-08 11:27 | -13.71168 | 33.20998 | 23644 ft | 423 kts | 275° |
| 2026-05-08 11:27 | -13.70944 | 33.17962 | 24287 ft | 427 kts | 275° |
| 2026-05-08 11:28 | -13.70718 | 33.14903 | 24923 ft | 431 kts | 275° |
| 2026-05-08 11:28 | -13.70490 | 33.11814 | 25534 ft | 435 kts | 275° |
| 2026-05-08 11:28 | -13.70260 | 33.08697 | 26154 ft | 439 kts | 275° |
| 2026-05-08 11:28 | -13.70028 | 33.05558 | 26775 ft | 442 kts | 274° |
| 2026-05-08 11:29 | -13.69795 | 33.02430 | 27349 ft | 446 kts | 274° |
| 2026-05-08 11:29 | -13.69587 | 32.99236 | 27913 ft | 450 kts | 272° |
| 2026-05-08 11:29 | -13.69779 | 32.96021 | 28471 ft | 453 kts | 263° |
| 2026-05-08 11:29 | -13.70449 | 32.92851 | 29038 ft | 457 kts | 254° |
| 2026-05-08 11:30 | -13.71534 | 32.89760 | 29552 ft | 460 kts | 250° |
| 2026-05-08 11:30 | -13.72675 | 32.86675 | 30103 ft | 462 kts | 250° |
| 2026-05-08 11:30 | -13.73802 | 32.83576 | 30588 ft | 465 kts | 250° |
| 2026-05-08 11:30 | -13.74942 | 32.80445 | 30991 ft | 470 kts | 250° |
| 2026-05-08 11:31 | -13.76085 | 32.77339 | 31559 ft | 469 kts | 250° |
| 2026-05-08 11:31 | -13.77238 | 32.74206 | 32142 ft | 469 kts | 250° |
| 2026-05-08 11:31 | -13.78387 | 32.71057 | 32674 ft | 470 kts | 250° |
| 2026-05-08 11:31 | -13.79534 | 32.67910 | 33179 ft | 471 kts | 250° |
| 2026-05-08 11:32 | -13.80689 | 32.64757 | 33689 ft | 472 kts | 250° |
| 2026-05-08 11:32 | -13.81847 | 32.61595 | 34226 ft | 472 kts | 251° |
| 2026-05-08 11:32 | -13.83000 | 32.58434 | 34791 ft | 471 kts | 251° |
| 2026-05-08 11:32 | -13.84147 | 32.55288 | 35415 ft | 469 kts | 251° |
| 2026-05-08 11:33 | -13.85278 | 32.52192 | 36024 ft | 467 kts | 251° |
| 2026-05-08 11:33 | -13.86418 | 32.49073 | 36627 ft | 465 kts | 251° |
| 2026-05-08 11:33 | -13.87551 | 32.45964 | 37179 ft | 464 kts | 251° |
| 2026-05-08 11:33 | -13.88680 | 32.42860 | 37739 ft | 463 kts | 251° |
| 2026-05-08 11:34 | -13.89810 | 32.39762 | 38277 ft | 462 kts | 251° |
| 2026-05-08 11:34 | -13.90935 | 32.36674 | 38832 ft | 460 kts | 251° |
| 2026-05-08 11:34 | -13.92054 | 32.33597 | 39379 ft | 458 kts | 251° |
| 2026-05-08 11:34 | -13.93167 | 32.30541 | 39912 ft | 453 kts | 251° |
| 2026-05-08 11:35 | -13.94265 | 32.27520 | 40046 ft | 462 kts | 251° |
| 2026-05-08 11:35 | -13.95401 | 32.24389 | 40042 ft | 473 kts | 251° |
| 2026-05-08 11:35 | -13.96565 | 32.21186 | 40055 ft | 483 kts | 251° |
| 2026-05-08 11:36 | -13.98958 | 32.14600 | 40065 ft | 498 kts | 251° |
| 2026-05-08 11:36 | -14.01398 | 32.07874 | 40057 ft | 503 kts | 251° |
| 2026-05-08 11:37 | -14.03825 | 32.01178 | 40064 ft | 502 kts | 251° |
| 2026-05-08 11:37 | -14.06262 | 31.94445 | 40060 ft | 501 kts | 251° |
| 2026-05-08 11:38 | -14.08692 | 31.87728 | 40050 ft | 500 kts | 251° |
| 2026-05-08 11:38 | -14.11116 | 31.81018 | 40062 ft | 499 kts | 251° |
| 2026-05-08 11:39 | -14.13529 | 31.74334 | 40054 ft | 497 kts | 251° |
| 2026-05-08 11:39 | -14.15921 | 31.67701 | 40058 ft | 497 kts | 251° |
| 2026-05-08 11:40 | -14.18324 | 31.61030 | 40062 ft | 497 kts | 251° |
| 2026-05-08 11:40 | -14.20722 | 31.54367 | 40051 ft | 496 kts | 251° |
| 2026-05-08 11:41 | -14.23121 | 31.47696 | 40058 ft | 496 kts | 251° |
| 2026-05-08 11:41 | -14.25496 | 31.41084 | 40063 ft | 495 kts | 251° |
| 2026-05-08 11:42 | -14.27881 | 31.34437 | 40055 ft | 495 kts | 251° |
| 2026-05-08 11:42 | -14.30269 | 31.27777 | 40052 ft | 494 kts | 251° |
| 2026-05-08 11:43 | -14.32650 | 31.21129 | 40065 ft | 494 kts | 251° |
| 2026-05-08 11:43 | -14.35030 | 31.14477 | 40065 ft | 493 kts | 251° |
| 2026-05-08 11:44 | -14.37387 | 31.07884 | 40060 ft | 493 kts | 251° |
| 2026-05-08 11:44 | -14.39759 | 31.01241 | 40064 ft | 493 kts | 251° |
| 2026-05-08 11:45 | -14.42129 | 30.94599 | 40068 ft | 493 kts | 251° |
| 2026-05-08 11:45 | -14.44491 | 30.87969 | 40067 ft | 493 kts | 251° |
| 2026-05-08 11:46 | -14.46838 | 30.81379 | 40065 ft | 493 kts | 251° |
| 2026-05-08 11:46 | -14.49936 | 30.72667 | 40086 ft | 493 kts | 252° |
| 2026-05-08 11:47 | -14.59372 | 30.46059 | 40086 ft | 493 kts | 252° |
| 2026-05-08 11:47 | -14.68770 | 30.19454 | 40130 ft | 493 kts | 252° |
| 2026-05-08 11:48 | -14.78057 | 29.93059 | 40140 ft | 490 kts | 252° |
| 2026-05-08 11:48 | -14.82632 | 29.80026 | 39326 ft | 458 kts | 252° |
| 2026-05-08 11:48 | -14.86793 | 29.68128 | 36721 ft | 431 kts | 252° |
| 2026-05-08 11:48 | -14.90860 | 29.56486 | 34433 ft | 430 kts | 252° |
| 2026-05-08 11:49 | -14.94941 | 29.44784 | 32144 ft | 435 kts | 252° |
| 2026-05-08 11:49 | -14.99041 | 29.33008 | 29824 ft | 429 kts | 252° |
| 2026-05-08 11:49 | -15.02668 | 29.21478 | 27591 ft | 416 kts | 253° |
| 2026-05-08 11:49 | -15.06157 | 29.10332 | 25430 ft | 409 kts | 254° |
| 2026-05-08 11:50 | -15.09630 | 28.99200 | 23267 ft | 404 kts | 254° |
| 2026-05-08 11:50 | -15.13042 | 28.88245 | 21144 ft | 395 kts | 253° |
| 2026-05-08 11:50 | -15.15351 | 28.77412 | 19054 ft | 382 kts | 278° |
| 2026-05-08 11:50 | -15.14294 | 28.66534 | 17057 ft | 374 kts | 277° |
| 2026-05-08 11:51 | -15.13260 | 28.55904 | 15091 ft | 367 kts | 276° |
| 2026-05-08 11:51 | -15.12251 | 28.45524 | 13165 ft | 357 kts | 276° |
| 2026-05-08 11:51 | -15.11069 | 28.35592 | 11340 ft | 346 kts | 278° |
| 2026-05-08 11:51 | -15.12462 | 28.28298 | 9478 ft | 293 kts | 226° |
| 2026-05-08 11:52 | -15.14038 | 28.27026 | 9022 ft | 283 kts | 210° |
| 2026-05-08 11:52 | -15.15890 | 28.26325 | 8570 ft | 288 kts | 192° |
| 2026-05-08 11:52 | -15.17879 | 28.26081 | 8198 ft | 288 kts | 185° |
| 2026-05-08 11:52 | -15.19860 | 28.25871 | 7838 ft | 286 kts | 186° |
| 2026-05-08 11:53 | -15.21823 | 28.25638 | 7475 ft | 283 kts | 186° |
| 2026-05-08 11:53 | -15.23766 | 28.25404 | 7105 ft | 279 kts | 186° |
| 2026-05-08 11:53 | -15.25634 | 28.25191 | 6699 ft | 250 kts | 185° |
| 2026-05-08 11:53 | -15.27308 | 28.24999 | 6362 ft | 240 kts | 186° |
| 2026-05-08 11:54 | -15.28943 | 28.24926 | 5951 ft | 233 kts | 173° |
| 2026-05-08 11:54 | -15.30355 | 28.25581 | 5553 ft | 221 kts | 143° |
| 2026-05-08 11:54 | -15.31260 | 28.26787 | 5399 ft | 195 kts | 115° |
| 2026-05-08 11:54 | -15.31559 | 28.28096 | 5478 ft | 186 kts | 97° |
| 2026-05-08 11:55 | -15.31694 | 28.29426 | 5486 ft | 185 kts | 96° |
| 2026-05-08 11:55 | -15.31813 | 28.30750 | 5495 ft | 186 kts | 95° |
| 2026-05-08 11:55 | -15.31929 | 28.32079 | 5462 ft | 185 kts | 95° |
| 2026-05-08 11:55 | -15.32052 | 28.33455 | 5456 ft | 185 kts | 95° |
| 2026-05-08 11:56 | -15.32280 | 28.36074 | 5199 ft | 183 kts | 95° |
| 2026-05-08 11:56 | -15.32492 | 28.38491 | 4740 ft | 158 kts | 95° |
| 2026-05-08 11:56 | -15.32594 | 28.39724 | 4500 ft | 135 kts | 94° |
| 2026-05-08 11:56 | -15.32678 | 28.40673 | 4326 ft | 131 kts | 94° |
| 2026-05-08 11:57 | -15.32759 | 28.41606 | 4163 ft | 130 kts | 94° |
| 2026-05-08 11:57 | -15.32841 | 28.42540 | 3993 ft | 131 kts | 94° |
| 2026-05-08 11:57 | -15.32922 | 28.43477 | 3823 ft | 131 kts | 94° |
| 2026-05-08 11:57 | -15.32999 | 28.44364 | 3759 ft | 109 kts | 95° |
| 2026-05-08 11:58 | -15.33039 | 28.44812 | 3764 ft | 9 kts | 96° |
| 2026-05-08 11:58 | -15.33040 | 28.44815 | 3765 ft | 0 kts | 96° |